createdAt,value
2019-03-17T00:00:14.376Z,79
2019-03-17T00:01:16.715Z,79
2019-03-17T00:02:18.748Z,79
2019-03-17T00:03:20.776Z,79
2019-03-17T00:04:32.727Z,79
2019-03-17T00:05:34.802Z,79
2019-03-17T00:06:36.839Z,80
2019-03-17T00:07:38.869Z,79
2019-03-17T00:08:40.913Z,79
2019-03-17T00:09:43.231Z,79
2019-03-17T00:10:45.344Z,79
2019-03-17T00:11:47.392Z,78
2019-03-17T00:12:49.713Z,79
2019-03-17T00:13:51.755Z,79
2019-03-17T00:15:07.294Z,78
2019-03-17T00:16:09.339Z,78
2019-03-17T00:17:11.650Z,78
2019-03-17T00:18:13.721Z,78
2019-03-17T00:19:15.768Z,79
2019-03-17T00:20:17.807Z,78
2019-03-17T00:21:20.421Z,78
2019-03-17T00:22:22.448Z,77
2019-03-17T00:23:24.762Z,78
2019-03-17T00:24:26.808Z,78
2019-03-17T00:25:28.846Z,79
2019-03-17T00:26:30.932Z,78
2019-03-17T00:27:32.974Z,78
2019-03-17T00:28:35.090Z,78
2019-03-17T00:29:37.422Z,78
2019-03-17T00:30:39.459Z,78
2019-03-17T00:31:41.774Z,79
2019-03-17T00:32:43.802Z,77
2019-03-17T00:33:46.202Z,77
2019-03-17T00:34:51.427Z,77
2019-03-17T00:35:53.746Z,77
2019-03-17T00:36:55.778Z,77
2019-03-17T00:37:58.127Z,78
2019-03-17T00:39:00.165Z,77
2019-03-17T00:40:02.232Z,78
2019-03-17T00:41:04.265Z,78
2019-03-17T00:42:06.596Z,76
2019-03-17T00:43:08.620Z,76
2019-03-17T00:44:10.660Z,76
2019-03-17T00:45:12.936Z,76
2019-03-17T00:46:14.978Z,76
2019-03-17T00:47:17.030Z,76
2019-03-17T00:48:19.347Z,77
2019-03-17T00:49:21.379Z,77
2019-03-17T00:50:23.694Z,77
2019-03-17T00:51:25.755Z,76
2019-03-17T00:52:27.792Z,76
2019-03-17T00:53:29.851Z,76
2019-03-17T00:54:31.891Z,76
2019-03-17T00:55:33.925Z,76
2019-03-17T00:56:36.246Z,76
2019-03-17T00:57:38.291Z,76
2019-03-17T00:58:40.613Z,75
2019-03-17T00:59:42.718Z,76
2019-03-17T01:00:44.801Z,75
2019-03-17T01:01:46.840Z,76
2019-03-17T01:02:48.881Z,75
2019-03-17T01:03:50.942Z,75
2019-03-17T01:04:57.667Z,74
2019-03-17T01:05:59.731Z,75
2019-03-17T01:07:02.175Z,75
2019-03-17T01:08:04.200Z,76
2019-03-17T01:09:06.251Z,75
2019-03-17T01:10:08.290Z,75
2019-03-17T01:11:10.324Z,75
2019-03-17T01:12:12.356Z,75
2019-03-17T01:13:14.397Z,75
2019-03-17T01:14:16.426Z,75
2019-03-17T01:15:18.478Z,76
2019-03-17T01:16:20.505Z,74
2019-03-17T01:17:22.942Z,75
2019-03-17T01:18:24.981Z,75
2019-03-17T01:19:27.011Z,74
2019-03-17T01:20:29.054Z,73
2019-03-17T01:21:31.100Z,73
2019-03-17T01:22:33.413Z,74
2019-03-17T01:23:35.448Z,74
2019-03-17T01:24:37.496Z,75
2019-03-17T01:25:40.389Z,74
2019-03-17T01:26:42.427Z,75
2019-03-17T01:27:44.480Z,74
2019-03-17T01:28:46.514Z,74
2019-03-17T01:29:48.552Z,74
2019-03-17T01:30:50.979Z,74
2019-03-17T01:31:53.000Z,73
2019-03-17T01:32:55.033Z,73
2019-03-17T01:33:57.072Z,72
2019-03-17T01:35:11.278Z,73
2019-03-17T01:36:13.325Z,74
2019-03-17T01:37:15.657Z,74
2019-03-17T01:38:17.705Z,73
2019-03-17T01:39:20.021Z,74
2019-03-17T01:40:22.100Z,74
2019-03-17T01:41:24.510Z,74
2019-03-17T01:42:26.828Z,74
2019-03-17T01:43:28.854Z,74
2019-03-17T01:44:31.155Z,73
2019-03-17T01:45:33.200Z,73
2019-03-17T01:46:35.615Z,73
2019-03-17T01:47:37.722Z,73
2019-03-17T01:48:39.749Z,73
2019-03-17T01:49:41.801Z,73
2019-03-17T01:50:43.830Z,72
2019-03-17T01:51:45.864Z,72
2019-03-17T01:52:47.908Z,73
2019-03-17T01:53:50.227Z,73
2019-03-17T01:54:52.265Z,73
2019-03-17T01:55:54.305Z,72
2019-03-17T01:56:56.349Z,73
2019-03-17T01:57:58.386Z,73
2019-03-17T01:59:00.430Z,72
2019-03-17T02:00:02.480Z,72
2019-03-17T02:01:04.826Z,73
2019-03-17T02:02:06.872Z,73
2019-03-17T02:03:08.903Z,72
2019-03-17T02:04:10.931Z,72
2019-03-17T02:05:23.551Z,72
2019-03-17T02:06:25.606Z,72
2019-03-17T02:07:28.015Z,73
2019-03-17T02:08:30.346Z,73
2019-03-17T02:09:32.649Z,72
2019-03-17T02:10:34.688Z,73
2019-03-17T02:11:36.723Z,72
2019-03-17T02:12:39.149Z,72
2019-03-17T02:13:41.176Z,73
2019-03-17T02:14:43.787Z,72
2019-03-17T02:15:45.824Z,72
2019-03-17T02:16:47.856Z,72
2019-03-17T02:17:50.176Z,73
2019-03-17T02:18:52.279Z,73
2019-03-17T02:19:54.326Z,73
2019-03-17T02:20:56.371Z,72
2019-03-17T02:21:58.414Z,73
2019-03-17T02:23:00.722Z,73
2019-03-17T02:24:03.051Z,72
2019-03-17T02:25:05.373Z,72
2019-03-17T02:26:07.403Z,73
2019-03-17T02:27:09.434Z,72
2019-03-17T02:28:11.472Z,72
2019-03-17T02:29:13.507Z,73
2019-03-17T02:30:15.573Z,73
2019-03-17T02:31:17.605Z,73
2019-03-17T02:32:19.665Z,73
2019-03-17T02:33:22.842Z,73
2019-03-17T02:34:25.453Z,73
2019-03-17T02:35:41.336Z,72
2019-03-17T02:36:43.388Z,73
2019-03-17T02:37:45.849Z,73
2019-03-17T02:38:48.860Z,73
2019-03-17T02:39:50.928Z,74
2019-03-17T02:40:53.918Z,74
2019-03-17T02:41:56.252Z,73
2019-03-17T02:42:58.307Z,73
2019-03-17T02:44:00.389Z,73
2019-03-17T02:45:02.856Z,73
2019-03-17T02:46:04.930Z,73
2019-03-17T02:47:07.252Z,74
2019-03-17T02:48:09.615Z,73
2019-03-17T02:49:11.668Z,74
2019-03-17T02:50:14.019Z,73
2019-03-17T02:51:16.647Z,73
2019-03-17T02:52:19.000Z,73
2019-03-17T02:53:21.070Z,72
2019-03-17T02:54:23.114Z,73
2019-03-17T02:55:25.295Z,73
2019-03-17T02:56:27.370Z,73
2019-03-17T02:57:29.416Z,73
2019-03-17T02:58:31.460Z,73
2019-03-17T02:59:33.892Z,73
2019-03-17T03:00:36.332Z,73
2019-03-17T03:01:38.401Z,73
2019-03-17T03:02:40.840Z,74
2019-03-17T03:03:42.884Z,73
2019-03-17T03:04:45.242Z,73
2019-03-17T03:05:57.184Z,74
2019-03-17T03:06:59.519Z,73
2019-03-17T03:08:01.558Z,74
2019-03-17T03:09:03.738Z,73
2019-03-17T03:10:06.420Z,73
2019-03-17T03:11:09.085Z,73
2019-03-17T03:12:12.116Z,73
2019-03-17T03:13:14.734Z,73
2019-03-17T03:14:17.109Z,73
2019-03-17T03:15:19.156Z,73
2019-03-17T03:16:21.613Z,73
2019-03-17T03:17:23.986Z,73
2019-03-17T03:18:26.034Z,73
2019-03-17T03:19:28.069Z,73
2019-03-17T03:20:30.444Z,73
2019-03-17T03:21:32.752Z,73
2019-03-17T03:22:34.804Z,72
2019-03-17T03:23:37.151Z,73
2019-03-17T03:24:39.177Z,72
2019-03-17T03:25:41.218Z,73
2019-03-17T03:26:43.553Z,73
2019-03-17T03:27:45.606Z,73
2019-03-17T03:28:47.638Z,73
2019-03-17T03:29:50.723Z,73
2019-03-17T03:30:53.182Z,73
2019-03-17T03:31:55.944Z,73
2019-03-17T03:32:58.079Z,72
2019-03-17T03:34:00.971Z,72
2019-03-17T03:35:04.066Z,73
2019-03-17T03:36:12.813Z,73
2019-03-17T03:37:14.906Z,73
2019-03-17T03:38:17.326Z,73
2019-03-17T03:39:19.380Z,72
2019-03-17T03:40:21.428Z,72
2019-03-17T03:41:23.868Z,73
2019-03-17T03:42:26.017Z,73
2019-03-17T03:43:28.077Z,73
2019-03-17T03:44:30.441Z,72
2019-03-17T03:45:32.499Z,72
2019-03-17T03:46:34.842Z,72
2019-03-17T03:47:37.282Z,72
2019-03-17T03:48:39.602Z,72
2019-03-17T03:49:42.615Z,73
2019-03-17T03:50:44.673Z,72
2019-03-17T03:51:46.722Z,72
2019-03-17T03:52:48.780Z,72
2019-03-17T03:53:50.854Z,72
2019-03-17T03:54:53.190Z,73
2019-03-17T03:55:55.261Z,72
2019-03-17T03:56:57.625Z,73
2019-03-17T03:57:59.663Z,73
2019-03-17T03:59:01.731Z,72
2019-03-17T04:00:04.349Z,72
2019-03-17T04:01:06.989Z,72
2019-03-17T04:02:09.015Z,73
2019-03-17T04:03:11.759Z,73
2019-03-17T04:04:14.929Z,73
2019-03-17T04:05:16.993Z,72
2019-03-17T04:06:28.001Z,72
2019-03-17T04:07:30.336Z,72
2019-03-17T04:08:32.693Z,72
2019-03-17T04:09:34.747Z,72
2019-03-17T04:10:37.101Z,72
2019-03-17T04:11:39.169Z,72
2019-03-17T04:12:41.658Z,72
2019-03-17T04:13:43.791Z,72
2019-03-17T04:14:45.828Z,72
2019-03-17T04:15:48.569Z,72
2019-03-17T04:16:50.616Z,72
2019-03-17T04:17:53.718Z,71
2019-03-17T04:18:56.083Z,71
2019-03-17T04:19:58.504Z,72
2019-03-17T04:21:00.842Z,72
2019-03-17T04:22:03.561Z,72
2019-03-17T04:23:05.990Z,72
2019-03-17T04:24:08.080Z,72
2019-03-17T04:25:10.988Z,72
2019-03-17T04:26:13.316Z,72
2019-03-17T04:27:15.350Z,72
2019-03-17T04:28:18.022Z,72
2019-03-17T04:29:20.088Z,72
2019-03-17T04:30:23.281Z,72
2019-03-17T04:31:25.338Z,71
2019-03-17T04:32:27.363Z,72
2019-03-17T04:33:29.402Z,72
2019-03-17T04:34:31.442Z,71
2019-03-17T04:35:33.513Z,71
2019-03-17T04:36:41.531Z,71
2019-03-17T04:37:43.573Z,71
2019-03-17T04:38:46.116Z,71
2019-03-17T04:39:48.149Z,71
2019-03-17T04:40:50.477Z,71
2019-03-17T04:41:52.537Z,71
2019-03-17T04:42:54.565Z,71
2019-03-17T04:43:56.592Z,72
2019-03-17T04:44:59.031Z,71
2019-03-17T04:46:01.078Z,71
2019-03-17T04:47:03.116Z,71
2019-03-17T04:48:05.151Z,72
2019-03-17T04:49:07.196Z,71
2019-03-17T04:50:09.259Z,71
2019-03-17T04:51:11.629Z,72
2019-03-17T04:52:13.647Z,71
2019-03-17T04:53:15.682Z,71
2019-03-17T04:54:18.021Z,71
2019-03-17T04:55:20.119Z,71
2019-03-17T04:56:22.166Z,72
2019-03-17T04:57:24.206Z,71
2019-03-17T04:58:26.242Z,71
2019-03-17T04:59:28.273Z,71
2019-03-17T05:00:30.310Z,71
2019-03-17T05:01:32.435Z,72
2019-03-17T05:02:34.474Z,71
2019-03-17T05:03:36.506Z,71
2019-03-17T05:04:38.541Z,71
2019-03-17T05:05:40.568Z,72
2019-03-17T05:06:53.937Z,71
2019-03-17T05:07:55.968Z,71
2019-03-17T05:08:58.013Z,71
2019-03-17T05:10:00.037Z,71
2019-03-17T05:11:02.248Z,71
2019-03-17T05:12:04.754Z,72
2019-03-17T05:13:06.781Z,71
2019-03-17T05:14:08.916Z,71
2019-03-17T05:15:11.234Z,72
2019-03-17T05:16:13.286Z,72
2019-03-17T05:17:15.320Z,71
2019-03-17T05:18:17.376Z,71
2019-03-17T05:19:19.412Z,71
2019-03-17T05:20:21.724Z,71
2019-03-17T05:21:23.766Z,71
2019-03-17T05:22:25.792Z,72
2019-03-17T05:23:27.829Z,72
2019-03-17T05:24:29.868Z,72
2019-03-17T05:25:31.893Z,72
2019-03-17T05:26:33.942Z,72
2019-03-17T05:27:35.982Z,72
2019-03-17T05:28:38.015Z,72
2019-03-17T05:29:40.061Z,72
2019-03-17T05:30:42.102Z,72
2019-03-17T05:31:44.135Z,72
2019-03-17T05:32:46.164Z,72
2019-03-17T05:33:48.870Z,72
2019-03-17T05:34:50.896Z,72
2019-03-17T05:35:53.213Z,72
2019-03-17T05:37:07.674Z,72
2019-03-17T05:38:09.726Z,72
2019-03-17T05:39:12.055Z,72
2019-03-17T05:40:14.095Z,72
2019-03-17T05:41:16.125Z,71
2019-03-17T05:42:18.177Z,72
2019-03-17T05:43:20.202Z,72
2019-03-17T05:44:22.235Z,72
2019-03-17T05:45:24.271Z,72
2019-03-17T05:46:26.599Z,71
2019-03-17T05:47:28.637Z,71
2019-03-17T05:48:30.671Z,71
2019-03-17T05:49:32.701Z,72
2019-03-17T05:50:34.745Z,71
2019-03-17T05:51:37.175Z,71
2019-03-17T05:52:39.229Z,71
2019-03-17T05:53:41.386Z,71
2019-03-17T05:54:43.431Z,71
2019-03-17T05:55:45.774Z,71
2019-03-17T05:56:47.808Z,71
2019-03-17T05:57:49.919Z,71
2019-03-17T05:58:51.938Z,71
2019-03-17T05:59:53.975Z,71
2019-03-17T06:00:56.017Z,71
2019-03-17T06:01:58.049Z,71
2019-03-17T06:03:00.097Z,71
2019-03-17T06:04:02.132Z,71
2019-03-17T06:05:04.173Z,71
2019-03-17T06:06:06.198Z,71
2019-03-17T06:07:19.871Z,71
2019-03-17T06:08:21.951Z,71
2019-03-17T06:09:23.994Z,71
2019-03-17T06:10:26.027Z,70
2019-03-17T06:11:28.051Z,70
2019-03-17T06:12:30.482Z,70
2019-03-17T06:13:32.585Z,70
2019-03-17T06:14:34.623Z,70
2019-03-17T06:15:37.321Z,71
2019-03-17T06:16:40.031Z,71
2019-03-17T06:17:42.365Z,70
2019-03-17T06:18:44.676Z,70
2019-03-17T06:19:46.981Z,70
2019-03-17T06:20:49.307Z,70
2019-03-17T06:21:51.338Z,70
2019-03-17T06:22:53.364Z,70
2019-03-17T06:23:55.390Z,70
2019-03-17T06:24:58.118Z,70
2019-03-17T06:26:00.190Z,70
2019-03-17T06:27:02.232Z,70
2019-03-17T06:28:04.267Z,70
2019-03-17T06:29:06.299Z,70
2019-03-17T06:30:08.615Z,70
2019-03-17T06:31:10.660Z,70
2019-03-17T06:32:13.007Z,70
2019-03-17T06:33:15.433Z,70
2019-03-17T06:34:17.480Z,71
2019-03-17T06:35:19.508Z,70
2019-03-17T06:36:21.636Z,70
2019-03-17T06:37:32.141Z,70
2019-03-17T06:38:34.174Z,70
2019-03-17T06:39:36.203Z,70
2019-03-17T06:40:38.251Z,70
2019-03-17T06:41:40.295Z,70
2019-03-17T06:42:42.333Z,70
2019-03-17T06:43:44.371Z,70
2019-03-17T06:44:46.679Z,70
2019-03-17T06:45:48.719Z,70
2019-03-17T06:46:50.750Z,70
2019-03-17T06:47:52.794Z,70
2019-03-17T06:48:54.821Z,70
2019-03-17T06:49:56.871Z,70
2019-03-17T06:50:58.901Z,70
2019-03-17T06:52:00.960Z,70
2019-03-17T06:53:03.017Z,70
2019-03-17T06:54:05.064Z,70
2019-03-17T06:55:07.096Z,70
2019-03-17T06:56:09.189Z,71
2019-03-17T06:57:11.317Z,70
2019-03-17T06:58:13.422Z,71
2019-03-17T06:59:19.183Z,71
2019-03-17T07:00:21.307Z,70
2019-03-17T07:01:24.145Z,71
2019-03-17T07:02:26.285Z,71
2019-03-17T07:03:28.403Z,71
2019-03-17T07:04:30.515Z,71
2019-03-17T07:05:32.652Z,71
2019-03-17T07:06:34.758Z,71
2019-03-17T07:07:45.902Z,71
2019-03-17T07:08:48.463Z,71
2019-03-17T07:09:50.567Z,71
2019-03-17T07:10:52.702Z,71
2019-03-17T07:11:54.911Z,71
2019-03-17T07:12:57.052Z,71
2019-03-17T07:13:59.524Z,71
2019-03-17T07:15:01.666Z,71
2019-03-17T07:16:04.091Z,71
2019-03-17T07:17:06.207Z,71
2019-03-17T07:18:08.362Z,71
2019-03-17T07:19:10.469Z,71
2019-03-17T07:20:12.615Z,71
2019-03-17T07:21:14.729Z,71
2019-03-17T07:22:16.881Z,71
2019-03-17T07:23:18.985Z,71
2019-03-17T07:24:21.515Z,71
2019-03-17T07:25:23.657Z,71
2019-03-17T07:26:25.774Z,71
2019-03-17T07:27:27.917Z,71
2019-03-17T07:28:30.028Z,71
2019-03-17T07:29:32.147Z,71
2019-03-17T07:30:34.278Z,71
2019-03-17T07:31:36.408Z,71
2019-03-17T07:32:38.809Z,71
2019-03-17T07:33:40.918Z,71
2019-03-17T07:34:43.073Z,71
2019-03-17T07:35:47.402Z,71
2019-03-17T07:36:49.556Z,71
2019-03-17T07:37:58.136Z,71
2019-03-17T07:39:13.228Z,71
2019-03-17T07:40:15.654Z,71
2019-03-17T07:41:17.791Z,71
2019-03-17T07:42:19.926Z,71
2019-03-17T07:43:22.023Z,71
2019-03-17T07:44:24.143Z,71
2019-03-17T07:45:26.650Z,71
2019-03-17T07:46:28.783Z,71
2019-03-17T07:47:30.890Z,71
2019-03-17T07:48:33.042Z,71
2019-03-17T07:49:35.210Z,71
2019-03-17T07:50:37.330Z,71
2019-03-17T07:51:39.547Z,72
2019-03-17T07:52:41.665Z,71
2019-03-17T07:53:43.793Z,72
2019-03-17T07:54:45.906Z,71
2019-03-17T07:55:48.459Z,71
2019-03-17T07:56:50.568Z,71
2019-03-17T07:57:52.693Z,72
2019-03-17T07:58:54.832Z,72
2019-03-17T07:59:56.951Z,72
2019-03-17T08:01:02.043Z,71
2019-03-17T08:02:04.240Z,72
2019-03-17T08:03:06.641Z,72
2019-03-17T08:04:08.761Z,72
2019-03-17T08:05:11.574Z,72
2019-03-17T08:06:14.006Z,72
2019-03-17T08:07:16.145Z,72
2019-03-17T08:08:21.791Z,72
2019-03-17T08:09:24.383Z,72
2019-03-17T08:10:26.560Z,72
2019-03-17T08:11:29.273Z,72
2019-03-17T08:12:31.409Z,72
2019-03-17T08:13:33.526Z,72
2019-03-17T08:14:35.917Z,72
2019-03-17T08:15:38.083Z,72
2019-03-17T08:16:40.195Z,72
2019-03-17T08:17:42.332Z,72
2019-03-17T08:18:45.038Z,72
2019-03-17T08:19:47.237Z,72
2019-03-17T08:20:49.336Z,72
2019-03-17T08:21:51.468Z,72
2019-03-17T08:22:53.592Z,72
2019-03-17T08:23:55.701Z,72
2019-03-17T08:24:58.511Z,72
2019-03-17T08:26:00.621Z,71
2019-03-17T08:27:02.743Z,72
2019-03-17T08:28:05.143Z,72
2019-03-17T08:29:07.295Z,71
2019-03-17T08:30:09.693Z,71
2019-03-17T08:31:11.830Z,71
2019-03-17T08:32:13.953Z,71
2019-03-17T08:33:16.060Z,71
2019-03-17T08:34:18.469Z,71
2019-03-17T08:35:20.588Z,71
2019-03-17T08:36:22.983Z,71
2019-03-17T08:37:25.108Z,71
2019-03-17T08:38:27.523Z,71
2019-03-17T08:39:29.708Z,72
2019-03-17T08:40:32.517Z,71
2019-03-17T08:41:37.877Z,72
2019-03-17T08:42:40.295Z,71
2019-03-17T08:43:55.383Z,71
2019-03-17T08:44:57.901Z,72
2019-03-17T08:46:00.019Z,71
2019-03-17T08:47:02.170Z,72
2019-03-17T08:48:04.613Z,71
2019-03-17T08:49:06.748Z,72
2019-03-17T08:50:08.854Z,71
2019-03-17T08:51:11.003Z,71
2019-03-17T08:52:13.127Z,72
2019-03-17T08:53:15.268Z,71
2019-03-17T08:54:17.379Z,72
2019-03-17T08:55:19.813Z,73
2019-03-17T08:56:21.942Z,75
2019-03-17T08:57:24.064Z,78
2019-03-17T08:58:26.249Z,79
2019-03-17T08:59:28.366Z,80
2019-03-17T09:00:30.526Z,80
2019-03-17T09:01:32.670Z,82
2019-03-17T09:02:34.804Z,82
2019-03-17T09:03:37.218Z,82
2019-03-17T09:04:39.348Z,83
2019-03-17T09:05:41.756Z,83
2019-03-17T09:06:44.148Z,83
2019-03-17T09:07:46.331Z,83
2019-03-17T09:08:48.509Z,83
2019-03-17T09:09:50.718Z,83
2019-03-17T09:10:52.841Z,84
2019-03-17T09:11:55.650Z,84
2019-03-17T09:12:58.246Z,84
2019-03-17T09:14:00.378Z,84
2019-03-17T09:15:03.175Z,84
2019-03-17T09:16:05.291Z,84
2019-03-17T09:17:15.924Z,84
2019-03-17T09:18:18.056Z,84
2019-03-17T09:19:20.560Z,84
2019-03-17T09:20:22.689Z,84
2019-03-17T09:21:24.830Z,85
2019-03-17T09:22:26.943Z,85
2019-03-17T09:23:29.368Z,85
2019-03-17T09:24:31.485Z,85
2019-03-17T09:25:33.611Z,85
2019-03-17T09:26:35.722Z,86
2019-03-17T09:27:37.861Z,85
2019-03-17T09:28:39.997Z,85
2019-03-17T09:29:42.152Z,86
2019-03-17T09:30:44.296Z,85
2019-03-17T09:31:46.438Z,85
2019-03-17T09:32:48.878Z,85
2019-03-17T09:33:51.008Z,85
2019-03-17T09:34:53.133Z,85
2019-03-17T09:35:55.242Z,85
2019-03-17T09:36:57.382Z,84
2019-03-17T09:37:59.579Z,84
2019-03-17T09:39:01.711Z,84
2019-03-17T09:40:03.852Z,83
2019-03-17T09:41:05.971Z,84
2019-03-17T09:42:10.986Z,83
2019-03-17T09:43:13.364Z,83
2019-03-17T09:44:15.874Z,83
2019-03-17T09:45:18.002Z,84
2019-03-17T09:46:20.129Z,84
2019-03-17T09:47:22.536Z,84
2019-03-17T09:48:24.706Z,84
2019-03-17T09:49:26.839Z,83
2019-03-17T09:50:28.967Z,84
2019-03-17T09:51:31.079Z,84
2019-03-17T09:52:33.213Z,84
2019-03-17T09:53:35.621Z,84
2019-03-17T09:54:38.027Z,84
2019-03-17T09:55:40.154Z,84
2019-03-17T09:56:42.262Z,84
2019-03-17T09:57:44.429Z,84
2019-03-17T09:58:47.166Z,84
2019-03-17T09:59:49.299Z,84
2019-03-17T10:00:51.399Z,84
2019-03-17T10:01:53.838Z,84
2019-03-17T10:02:56.352Z,85
2019-03-17T10:03:58.474Z,85
2019-03-17T10:05:00.779Z,85
2019-03-17T10:06:02.927Z,85
2019-03-17T10:07:05.630Z,84
2019-03-17T10:08:07.761Z,84
2019-03-17T10:09:09.861Z,83
2019-03-17T10:10:12.005Z,83
2019-03-17T10:11:14.127Z,82
2019-03-17T10:12:16.256Z,82
2019-03-17T10:13:18.718Z,81
2019-03-17T10:14:20.832Z,81
2019-03-17T10:15:22.990Z,82
2019-03-17T10:16:25.132Z,82
2019-03-17T10:17:27.246Z,82
2019-03-17T10:18:29.354Z,81
2019-03-17T10:19:31.474Z,82
2019-03-17T10:20:33.587Z,82
2019-03-17T10:21:35.725Z,82
2019-03-17T10:22:40.793Z,82
2019-03-17T10:23:42.913Z,83
2019-03-17T10:24:45.322Z,82
2019-03-17T10:25:47.741Z,82
2019-03-17T10:26:49.887Z,81
2019-03-17T10:27:52.008Z,81
2019-03-17T10:28:54.143Z,80
2019-03-17T10:29:56.256Z,81
2019-03-17T10:30:58.699Z,81
2019-03-17T10:32:00.824Z,81
2019-03-17T10:33:03.377Z,81
2019-03-17T10:34:06.150Z,81
2019-03-17T10:35:08.271Z,81
2019-03-17T10:36:10.394Z,81
2019-03-17T10:37:12.504Z,81
2019-03-17T10:38:14.931Z,81
2019-03-17T10:39:17.047Z,81
2019-03-17T10:40:19.738Z,82
2019-03-17T10:41:22.144Z,81
2019-03-17T10:42:24.282Z,81
2019-03-17T10:43:26.397Z,81
2019-03-17T10:44:28.548Z,80
2019-03-17T10:45:30.696Z,81
2019-03-17T10:46:33.446Z,81
2019-03-17T10:47:35.566Z,80
2019-03-17T10:48:37.689Z,79
2019-03-17T10:49:39.822Z,80
2019-03-17T10:50:50.774Z,79
2019-03-17T10:51:52.882Z,79
2019-03-17T10:52:55.009Z,79
2019-03-17T10:53:57.118Z,79
2019-03-17T10:54:59.238Z,79
2019-03-17T10:56:01.385Z,79
2019-03-17T10:57:03.515Z,79
2019-03-17T10:58:05.930Z,79
2019-03-17T10:59:08.107Z,79
2019-03-17T11:00:10.245Z,78
2019-03-17T11:01:12.361Z,79
2019-03-17T11:02:14.500Z,79
2019-03-17T11:03:16.886Z,78
2019-03-17T11:04:19.055Z,79
2019-03-17T11:05:21.192Z,79
2019-03-17T11:06:23.323Z,78
2019-03-17T11:07:25.440Z,78
2019-03-17T11:08:27.882Z,78
2019-03-17T11:09:30.007Z,79
2019-03-17T11:10:32.127Z,78
2019-03-17T11:11:34.279Z,78
2019-03-17T11:12:36.392Z,77
2019-03-17T11:13:38.520Z,77
2019-03-17T11:14:40.647Z,78
2019-03-17T11:15:43.098Z,77
2019-03-17T11:16:45.213Z,77
2019-03-17T11:17:47.427Z,77
2019-03-17T11:18:49.652Z,78
2019-03-17T11:19:52.065Z,77
2019-03-17T11:20:54.258Z,77
2019-03-17T11:21:56.483Z,77
2019-03-17T11:22:58.623Z,77
2019-03-17T11:24:00.751Z,76
2019-03-17T11:25:03.184Z,77
2019-03-17T11:26:05.322Z,77
2019-03-17T11:27:07.440Z,77
2019-03-17T11:28:09.564Z,77
2019-03-17T11:29:12.063Z,77
2019-03-17T11:30:14.195Z,77
2019-03-17T11:31:16.699Z,77
2019-03-17T11:32:18.847Z,77
2019-03-17T11:33:21.539Z,77
2019-03-17T11:34:23.665Z,77
2019-03-17T11:35:25.817Z,77
2019-03-17T11:36:27.994Z,77
2019-03-17T11:37:30.138Z,77
2019-03-17T11:38:32.276Z,77
2019-03-17T11:39:39.387Z,76
2019-03-17T11:40:41.506Z,77
2019-03-17T11:41:43.644Z,77
2019-03-17T11:42:45.783Z,76
2019-03-17T11:43:51.518Z,76
2019-03-17T11:44:53.652Z,75
2019-03-17T11:45:55.779Z,75
2019-03-17T11:46:58.270Z,74
2019-03-17T11:48:00.409Z,74
2019-03-17T11:49:02.566Z,74
2019-03-17T11:50:04.701Z,74
2019-03-17T11:51:07.235Z,73
2019-03-17T11:52:09.441Z,74
2019-03-17T11:53:11.551Z,73
2019-03-17T11:54:13.685Z,73
2019-03-17T11:55:15.917Z,74
2019-03-17T11:56:18.058Z,74
2019-03-17T11:57:20.186Z,73
2019-03-17T11:58:22.351Z,73
2019-03-17T11:59:24.478Z,73
2019-03-17T12:00:26.628Z,72
2019-03-17T12:01:29.134Z,72
2019-03-17T12:02:31.266Z,72
2019-03-17T12:03:33.405Z,70
2019-03-17T12:04:35.567Z,71
2019-03-17T12:05:38.083Z,70
2019-03-17T12:06:40.263Z,71
2019-03-17T12:07:42.486Z,71
2019-03-17T12:08:44.597Z,71
2019-03-17T12:09:51.459Z,70
2019-03-17T12:10:53.591Z,71
2019-03-17T12:11:55.713Z,71
2019-03-17T12:12:57.916Z,70
2019-03-17T12:14:00.061Z,70
2019-03-17T12:15:02.477Z,70
2019-03-17T12:16:04.975Z,70
2019-03-17T12:17:07.134Z,70
2019-03-17T12:18:09.245Z,70
2019-03-17T12:19:11.387Z,69
2019-03-17T12:20:13.515Z,70
2019-03-17T12:21:15.645Z,69
2019-03-17T12:22:17.755Z,70
2019-03-17T12:23:20.204Z,67
2019-03-17T12:24:22.358Z,67
2019-03-17T12:25:24.511Z,67
2019-03-17T12:26:26.656Z,66
2019-03-17T12:27:28.780Z,66
2019-03-17T12:28:31.195Z,67
2019-03-17T12:29:33.338Z,65
2019-03-17T12:30:35.478Z,65
2019-03-17T12:31:37.588Z,65
2019-03-17T12:32:39.732Z,64
2019-03-17T12:33:41.843Z,64
2019-03-17T12:34:43.986Z,63
2019-03-17T12:35:46.440Z,64
2019-03-17T12:36:48.567Z,63
2019-03-17T12:37:50.725Z,64
2019-03-17T12:38:52.828Z,64
2019-03-17T12:40:04.138Z,64
2019-03-17T12:41:06.267Z,63
2019-03-17T12:42:08.380Z,65
2019-03-17T12:43:10.517Z,63
2019-03-17T12:44:12.641Z,63
2019-03-17T12:45:14.767Z,64
2019-03-17T12:46:16.914Z,62
2019-03-17T12:47:19.062Z,62
2019-03-17T12:48:21.173Z,62
2019-03-17T12:49:23.577Z,61
2019-03-17T12:50:25.711Z,63
2019-03-17T12:51:28.508Z,63
2019-03-17T12:52:30.650Z,61
2019-03-17T12:53:33.066Z,61
2019-03-17T12:54:35.196Z,61
2019-03-17T12:55:37.314Z,61
2019-03-17T12:56:39.472Z,59
2019-03-17T12:57:41.594Z,59
2019-03-17T12:58:43.749Z,60
2019-03-17T12:59:45.884Z,62
2019-03-17T13:00:48.591Z,60
2019-03-17T13:01:50.713Z,60
2019-03-17T13:02:53.142Z,60
2019-03-17T13:03:55.277Z,59
2019-03-17T13:04:57.397Z,60
2019-03-17T13:05:59.536Z,59
2019-03-17T13:07:01.967Z,59
2019-03-17T13:08:04.109Z,60
2019-03-17T13:09:06.836Z,58
2019-03-17T13:10:17.413Z,59
2019-03-17T13:11:19.926Z,59
2019-03-17T13:12:22.087Z,59
2019-03-17T13:13:24.491Z,59
2019-03-17T13:14:26.910Z,59
2019-03-17T13:15:29.066Z,62
2019-03-17T13:16:31.186Z,61
2019-03-17T13:17:33.340Z,60
2019-03-17T13:18:35.483Z,61
2019-03-17T13:19:37.625Z,61
2019-03-17T13:20:39.745Z,60
2019-03-17T13:21:41.907Z,62
2019-03-17T13:22:44.036Z,61
2019-03-17T13:23:46.161Z,61
2019-03-17T13:24:48.294Z,61
2019-03-17T13:25:50.712Z,61
2019-03-17T13:26:53.226Z,60
2019-03-17T13:27:55.368Z,59
2019-03-17T13:28:58.176Z,62
2019-03-17T13:30:00.477Z,61
2019-03-17T13:31:02.609Z,60
2019-03-17T13:32:04.740Z,60
2019-03-17T13:33:06.866Z,61
2019-03-17T13:34:09.569Z,61
2019-03-17T13:35:11.761Z,61
2019-03-17T13:36:13.877Z,60
2019-03-17T13:37:16.010Z,61
2019-03-17T13:38:18.161Z,62
2019-03-17T13:39:20.278Z,61
2019-03-17T13:40:31.008Z,61
2019-03-17T13:41:33.421Z,60
2019-03-17T13:42:35.556Z,62
2019-03-17T13:43:37.698Z,61
2019-03-17T13:44:39.853Z,61
2019-03-17T13:45:41.984Z,61
2019-03-17T13:46:44.125Z,61
2019-03-17T13:47:46.274Z,61
2019-03-17T13:48:48.696Z,63
2019-03-17T13:49:51.132Z,63
2019-03-17T13:50:53.255Z,64
2019-03-17T13:51:55.674Z,65
2019-03-17T13:52:57.789Z,64
2019-03-17T13:54:00.214Z,65
2019-03-17T13:55:02.353Z,64
2019-03-17T13:56:04.750Z,65
2019-03-17T13:57:06.884Z,65
2019-03-17T13:58:09.316Z,65
2019-03-17T13:59:11.463Z,66
2019-03-17T14:00:14.031Z,67
2019-03-17T14:01:16.437Z,68
2019-03-17T14:02:18.656Z,69
2019-03-17T14:03:21.056Z,70
2019-03-17T14:04:23.200Z,72
2019-03-17T14:05:25.351Z,74
2019-03-17T14:06:27.475Z,74
2019-03-17T14:07:29.616Z,75
2019-03-17T14:08:31.743Z,76
2019-03-17T14:09:36.438Z,77
2019-03-17T14:10:42.398Z,78
2019-03-17T14:11:44.543Z,77
2019-03-17T14:12:46.984Z,78
2019-03-17T14:13:49.114Z,77
2019-03-17T14:14:51.239Z,79
2019-03-17T14:15:53.738Z,78
2019-03-17T14:16:55.877Z,79
2019-03-17T14:17:58.010Z,79
2019-03-17T14:19:00.118Z,78
2019-03-17T14:20:02.261Z,78
2019-03-17T14:21:04.683Z,78
2019-03-17T14:22:07.122Z,79
2019-03-17T14:23:09.337Z,78
2019-03-17T14:24:11.449Z,79
2019-03-17T14:25:13.652Z,79
2019-03-17T14:26:15.772Z,79
2019-03-17T14:27:17.914Z,79
2019-03-17T14:28:20.443Z,79
2019-03-17T14:29:22.562Z,78
2019-03-17T14:30:24.691Z,78
2019-03-17T14:31:26.814Z,78
2019-03-17T14:32:28.956Z,79
2019-03-17T14:33:31.360Z,78
2019-03-17T14:34:33.499Z,77
2019-03-17T14:35:35.615Z,78
2019-03-17T14:36:38.330Z,79
2019-03-17T14:37:40.478Z,79
2019-03-17T14:38:42.605Z,78
2019-03-17T14:39:44.746Z,78
2019-03-17T14:40:57.959Z,77
2019-03-17T14:42:00.481Z,78
2019-03-17T14:43:02.619Z,77
2019-03-17T14:44:04.756Z,77
2019-03-17T14:45:06.876Z,77
2019-03-17T14:46:09.007Z,76
2019-03-17T14:47:11.125Z,75
2019-03-17T14:48:13.243Z,76
2019-03-17T14:49:15.442Z,75
2019-03-17T14:50:17.598Z,74
2019-03-17T14:51:19.760Z,74